createdAt,value
2022-11-21T16:10:31.820Z,69.56176758
2022-11-21T16:11:32.251Z,69.46411133
2022-11-21T16:12:33.138Z,69.56176758
2022-11-21T16:13:34.640Z,69.66552734
2022-11-21T16:14:35.319Z,69.76928711
2022-11-21T16:15:35.959Z,69.97680664
2022-11-21T16:16:41.497Z,70.08056641
2022-11-21T16:17:37.294Z,70.08056641
2022-11-21T16:18:37.972Z,69.76928711
2022-11-21T16:19:38.667Z,69.56176758
2022-11-21T16:20:39.342Z,69.87304688
2022-11-21T16:21:39.817Z,69.97680664
2022-11-21T16:22:45.700Z,69.36035156
2022-11-21T16:23:41.528Z,68.74389648
2022-11-21T16:24:42.221Z,68.64013672
2022-11-21T16:25:42.818Z,68.84765625
2022-11-21T16:26:43.406Z,69.2565918
2022-11-21T16:27:44.085Z,69.56176758
2022-11-21T16:28:44.635Z,69.56176758
2022-11-21T16:29:45.210Z,69.46411133
2022-11-21T16:30:45.863Z,69.66552734
2022-11-21T16:31:46.806Z,69.97680664
2022-11-21T16:32:47.389Z,70.28198242
2022-11-21T16:33:49.020Z,69.76928711
2022-11-21T16:34:49.611Z,69.76928711
2022-11-21T16:35:50.461Z,69.56176758
2022-11-21T16:36:51.986Z,69.56176758
2022-11-21T16:37:53.478Z,69.87304688
2022-11-21T16:39:24.402Z,70.17822266
2022-11-21T16:40:24.964Z,70.28198242
2022-11-21T16:41:25.535Z,70.17822266
2022-11-21T16:42:26.120Z,69.66552734
2022-11-21T16:43:27.803Z,69.76928711
2022-11-21T16:44:28.365Z,70.08056641
2022-11-21T16:45:29.042Z,70.31860352
2022-11-21T16:46:29.667Z,70.31860352
2022-11-21T16:47:30.350Z,70.31860352
2022-11-21T16:48:31.039Z,70.31860352
2022-11-21T16:49:31.956Z,70.31860352
2022-11-21T16:50:32.550Z,70.41625977
2022-11-21T16:51:33.044Z,70.52001953
2022-11-21T16:52:34.365Z,70.6237793
2022-11-21T16:53:35.644Z,70.72753906
2022-11-21T16:54:36.213Z,70.83129883
2022-11-21T16:55:36.904Z,70.93505859
2022-11-21T16:56:37.460Z,71.03881836
2022-11-21T16:57:38.110Z,71.13647461
2022-11-21T16:58:38.612Z,71.13647461
2022-11-21T16:59:40.184Z,71.27685547
2022-11-21T17:00:40.833Z,71.58203125
2022-11-21T17:01:41.401Z,71.68579102
2022-11-21T17:02:41.796Z,71.89331055
2022-11-21T17:03:43.133Z,71.78955078
2022-11-21T17:04:43.684Z,71.58203125
2022-11-21T17:05:44.238Z,71.47827148
2022-11-21T17:06:45.498Z,71.1730957
2022-11-21T17:07:47.292Z,71.27685547
2022-11-21T17:08:47.139Z,71.37451172
2022-11-21T17:09:47.130Z,71.47827148
2022-11-21T17:10:47.698Z,71.47827148
2022-11-21T17:11:48.299Z,71.58203125
2022-11-21T17:12:48.771Z,71.06933594
2022-11-21T17:13:50.177Z,71.27685547
2022-11-21T17:14:50.959Z,71.47827148
2022-11-21T17:15:51.502Z,71.47827148
2022-11-21T17:16:52.583Z,71.47827148
2022-11-21T17:18:23.339Z,71.68579102
2022-11-21T17:19:23.845Z,71.68579102
2022-11-21T17:20:24.446Z,71.37451172
2022-11-21T17:21:25.196Z,71.27685547
2022-11-21T17:22:25.842Z,71.37451172
2022-11-21T17:23:27.095Z,71.27685547
2022-11-21T17:24:28.105Z,71.37451172
2022-11-21T17:25:28.302Z,71.27685547
2022-11-21T17:26:28.930Z,70.96557617
2022-11-21T17:27:29.599Z,70.96557617
2022-11-21T17:28:30.251Z,71.37451172
2022-11-21T17:29:30.729Z,71.58203125
2022-11-21T17:30:31.228Z,71.68579102
2022-11-21T17:31:31.995Z,71.89331055
2022-11-21T17:32:32.692Z,71.58203125
2022-11-21T17:33:34.216Z,71.58203125
2022-11-21T17:34:35.286Z,71.78955078
2022-11-21T17:35:36.122Z,71.89331055
2022-11-21T17:36:36.677Z,71.89331055
2022-11-21T17:37:37.491Z,71.78955078
2022-11-21T17:38:38.156Z,71.89331055
2022-11-21T17:39:38.934Z,72.19848633
2022-11-21T17:40:39.468Z,72.40600586
2022-11-21T17:41:39.968Z,72.40600586
2022-11-21T17:42:40.693Z,72.71728516
2022-11-21T17:43:42.144Z,73.22998047
2022-11-21T17:44:42.851Z,73.53515625
2022-11-21T17:45:43.437Z,73.67553711
2022-11-21T17:46:43.940Z,74.29199219
2022-11-21T17:47:44.425Z,74.60327148
2022-11-21T17:48:49.777Z,74.70092773
2022-11-21T17:49:46.097Z,74.70092773
2022-11-21T17:50:46.840Z,75.01220703
2022-11-21T17:51:47.325Z,75.42114258
2022-11-21T17:52:48.379Z,75.73242188
2022-11-21T17:53:49.803Z,75.93994141
2022-11-21T17:54:50.522Z,76.45263672
2022-11-21T17:55:51.153Z,76.55639648
2022-11-21T17:56:56.590Z,76.69677734
2022-11-21T17:58:22.780Z,76.89819336
2022-11-21T17:59:23.340Z,77.00195313
2022-11-21T18:00:23.964Z,77.41699219
2022-11-21T18:01:24.824Z,77.6184082
2022-11-21T18:02:25.499Z,77.41699219
2022-11-21T18:03:25.976Z,77.41699219
2022-11-21T18:04:27.371Z,77.31323242
2022-11-21T18:05:27.983Z,77.20947266
2022-11-21T18:06:29.762Z,77.20947266
2022-11-21T18:07:30.644Z,77.20947266
2022-11-21T18:08:31.014Z,77.27661133
2022-11-21T18:09:31.586Z,77.48413086
2022-11-21T18:10:42.197Z,77.68554688
2022-11-21T18:11:38.970Z,77.89306641
2022-11-21T18:12:33.454Z,78.30200195
2022-11-21T18:13:34.062Z,78.61328125
2022-11-21T18:14:35.366Z,79.02832031
2022-11-21T18:15:35.810Z,79.47387695
2022-11-21T18:16:36.716Z,79.8828125
2022-11-21T18:17:37.352Z,80.40161133
2022-11-21T18:18:38.053Z,80.60913086
2022-11-21T18:19:38.527Z,80.81054688
2022-11-21T18:20:39.062Z,81.01806641
2022-11-21T18:21:39.632Z,81.12182617
2022-11-21T18:22:40.607Z,81.42700195
2022-11-21T18:23:41.442Z,81.63452148
2022-11-21T18:24:42.983Z,81.49414063
2022-11-21T18:25:43.556Z,81.59790039
2022-11-21T18:26:44.117Z,81.70166016
2022-11-21T18:27:50.135Z,81.49414063
2022-11-21T18:28:46.853Z,81.42700195
2022-11-21T18:29:47.019Z,81.73828125
2022-11-21T18:30:47.066Z,82.04956055
2022-11-21T18:31:47.585Z,82.25097656
2022-11-21T18:32:48.087Z,82.31811523
2022-11-21T18:33:48.851Z,82.421875
2022-11-21T18:34:50.084Z,82.62939453
2022-11-21T18:35:50.808Z,82.72705078
2022-11-21T18:36:52.624Z,82.72705078
2022-11-21T18:38:47.408Z,82.93457031
2022-11-21T18:39:24.100Z,82.83081055
2022-11-21T18:40:25.631Z,82.87353516
2022-11-21T18:41:26.171Z,83.2824707
2022-11-21T18:42:26.696Z,83.48999023
2022-11-21T18:43:27.236Z,83.69750977
2022-11-21T18:44:28.852Z,83.79516602
2022-11-21T18:45:29.463Z,83.69750977
2022-11-21T18:46:30.202Z,83.48999023
2022-11-21T18:47:30.847Z,83.59375
2022-11-21T18:49:00.154Z,83.59375
2022-11-21T18:49:32.109Z,83.69750977
2022-11-21T18:50:32.501Z,83.89892578
2022-11-21T18:51:33.224Z,84.10644531
2022-11-21T18:52:33.950Z,84.10644531
2022-11-21T18:53:34.422Z,84.21020508
2022-11-21T18:54:35.975Z,84.31396484
2022-11-21T18:55:36.486Z,84.31396484
2022-11-21T18:56:37.374Z,84.51538086
2022-11-21T18:57:38.015Z,84.61914063
2022-11-21T18:58:38.662Z,84.61914063
2022-11-21T18:59:39.115Z,84.41772461
2022-11-21T19:00:39.567Z,84.66186523
2022-11-21T19:01:40.339Z,85.07080078
2022-11-21T19:02:41.050Z,85.27832031
2022-11-21T19:03:41.805Z,85.17456055
2022-11-21T19:04:42.890Z,84.4543457
2022-11-21T19:05:43.377Z,84.4543457
2022-11-21T19:06:44.546Z,84.39331055
2022-11-21T19:07:45.311Z,84.59472656
2022-11-21T19:08:46.054Z,85.00976563
2022-11-21T19:09:46.792Z,85.21728516
2022-11-21T19:10:47.591Z,85.11352539
2022-11-21T19:11:48.091Z,85.00976563
2022-11-21T19:12:48.854Z,85.04638672
2022-11-21T19:13:49.543Z,85.35766602
2022-11-21T19:14:51.499Z,85.77270508
2022-11-21T19:16:22.643Z,85.66894531
2022-11-21T19:17:23.150Z,85.77270508
2022-11-21T19:18:23.866Z,85.97412109
2022-11-21T19:19:35.865Z,85.77270508
2022-11-21T19:20:25.773Z,85.46142578
2022-11-21T19:21:26.301Z,85.56518555
2022-11-21T19:22:26.887Z,85.66894531
2022-11-21T19:23:27.308Z,85.66894531
2022-11-21T19:24:28.742Z,85.66894531
2022-11-21T19:25:29.482Z,85.87036133
2022-11-21T19:26:30.122Z,85.97412109
2022-11-21T19:27:31.314Z,86.07788086
2022-11-21T19:28:31.776Z,85.97412109
2022-11-21T19:29:32.541Z,85.97412109
2022-11-21T19:30:33.266Z,85.87036133
2022-11-21T19:31:36.694Z,85.87036133
2022-11-21T19:32:34.659Z,85.66894531
2022-11-21T19:33:35.167Z,85.87036133
2022-11-21T19:34:36.623Z,86.07788086
2022-11-21T19:35:37.499Z,86.18164063
2022-11-21T19:36:38.668Z,86.12060547
2022-11-21T19:37:39.526Z,86.28540039
2022-11-21T19:38:40.145Z,86.12060547
2022-11-21T19:39:40.799Z,86.22436523
2022-11-21T19:40:41.335Z,86.22436523
2022-11-21T19:41:42.204Z,86.42578125
2022-11-21T19:42:42.917Z,86.52954102
2022-11-21T19:43:43.554Z,86.73706055
2022-11-21T19:44:44.060Z,86.73706055
2022-11-21T19:45:44.570Z,86.52954102
2022-11-21T19:46:45.182Z,86.42578125
2022-11-21T19:47:45.891Z,86.42578125
2022-11-21T19:48:46.735Z,86.52954102
2022-11-21T19:49:47.412Z,86.63330078
2022-11-21T19:50:52.781Z,86.73706055
2022-11-21T19:51:49.575Z,86.84082031
2022-11-21T19:52:50.301Z,86.52954102
2022-11-21T19:54:22.217Z,86.49291992
2022-11-21T19:55:22.884Z,86.59667969
2022-11-21T19:56:23.614Z,86.59667969
2022-11-21T19:57:23.981Z,85.97412109
2022-11-21T19:58:25.707Z,85.77270508
2022-11-21T19:59:26.822Z,85.77270508
2022-11-21T20:00:27.123Z,85.56518555
2022-11-21T20:01:27.852Z,85.56518555
2022-11-21T20:02:28.280Z,85.77270508
2022-11-21T20:03:29.049Z,85.77270508
2022-11-21T20:04:30.855Z,85.97412109
2022-11-21T20:05:31.334Z,86.22436523
2022-11-21T20:06:32.611Z,86.28540039
2022-11-21T20:07:33.045Z,86.49291992
2022-11-21T20:08:33.503Z,86.59667969
2022-11-21T20:09:34.887Z,86.38916016
2022-11-21T20:10:34.896Z,86.28540039
2022-11-21T20:11:35.590Z,86.28540039
2022-11-21T20:12:36.042Z,86.28540039
2022-11-21T20:13:36.518Z,86.52954102
2022-11-21T20:14:37.617Z,86.73706055
2022-11-21T20:15:38.363Z,86.7980957
2022-11-21T20:16:39.262Z,86.70043945
2022-11-21T20:17:39.515Z,86.59667969
2022-11-21T20:18:40.034Z,86.38916016
2022-11-21T20:19:40.553Z,86.18164063
2022-11-21T20:20:41.315Z,86.70043945
2022-11-21T20:21:42.201Z,86.90185547
2022-11-21T20:22:42.608Z,87.04833984
2022-11-21T20:23:43.018Z,87.15209961
2022-11-21T20:24:47.508Z,87.45727539
2022-11-21T20:25:44.492Z,87.56103516
2022-11-21T20:26:45.217Z,87.45727539
2022-11-21T20:27:45.778Z,87.56103516
2022-11-21T20:28:46.374Z,87.56103516
2022-11-21T20:29:47.082Z,87.56103516
2022-11-21T20:30:47.585Z,87.56103516
2022-11-21T20:31:48.588Z,87.35351563
2022-11-21T20:32:48.917Z,87.25585938
2022-11-21T20:33:49.606Z,86.94458008
2022-11-21T20:35:21.337Z,86.94458008
2022-11-21T20:36:22.598Z,86.84082031
2022-11-21T20:37:23.459Z,87.15209961
2022-11-21T20:38:24.642Z,87.35351563
2022-11-21T20:39:24.587Z,87.56103516
2022-11-21T20:40:25.116Z,87.66479492
2022-11-21T20:41:25.550Z,87.66479492
2022-11-21T20:42:26.628Z,87.45727539
2022-11-21T20:43:52.694Z,87.35351563
2022-11-21T20:45:29.967Z,87.35351563
2022-11-21T20:46:29.317Z,87.45727539
2022-11-21T20:47:29.806Z,87.56103516
2022-11-21T20:48:30.325Z,87.52441406
2022-11-21T20:49:31.177Z,87.4206543
2022-11-21T20:51:25.197Z,87.31689453
2022-11-21T20:53:06.345Z,87.31689453
2022-11-21T20:53:44.316Z,87.109375
2022-11-21T20:53:52.602Z,86.90185547
2022-11-21T20:54:33.711Z,86.7980957
2022-11-21T20:55:35.082Z,86.7980957
2022-11-21T20:56:35.839Z,86.59667969
2022-11-21T20:57:36.508Z,86.49291992
2022-11-21T20:58:36.843Z,86.28540039
2022-11-21T20:59:37.519Z,86.38916016
2022-11-21T21:00:38.349Z,86.49291992
2022-11-21T21:01:39.160Z,86.49291992
2022-11-21T21:02:39.560Z,86.49291992
2022-11-21T21:03:40.159Z,86.59667969
2022-11-21T21:04:40.630Z,86.70043945
2022-11-21T21:05:41.799Z,86.70043945
2022-11-21T21:06:43.113Z,86.7980957
2022-11-21T21:07:43.884Z,86.90185547
2022-11-21T21:08:44.853Z,86.86523438
2022-11-21T21:09:45.333Z,86.76147461
2022-11-21T21:11:05.326Z,86.45019531
2022-11-21T21:11:52.659Z,86.34643555
2022-11-21T21:12:48.613Z,86.24267578
2022-11-21T21:13:47.774Z,86.04125977
2022-11-21T21:14:48.257Z,85.9375
2022-11-21T21:15:49.325Z,85.6262207
2022-11-21T21:17:20.486Z,85.6262207
2022-11-21T21:18:21.209Z,85.69335938
2022-11-21T21:19:21.946Z,85.69335938
2022-11-21T21:20:22.985Z,85.38208008
2022-11-21T21:21:23.652Z,85.27832031
2022-11-21T21:22:24.304Z,85.27832031
2022-11-21T21:23:24.961Z,85.17456055
2022-11-21T21:24:25.486Z,84.96704102
2022-11-21T21:25:26.959Z,84.86938477
2022-11-21T21:26:27.434Z,84.66186523
2022-11-21T21:27:27.895Z,84.55810547
2022-11-21T21:28:28.505Z,84.35058594
2022-11-21T21:29:29.804Z,84.35058594
2022-11-21T21:30:30.134Z,84.35058594
2022-11-21T21:31:30.806Z,83.94165039
2022-11-21T21:32:31.822Z,83.83789063
2022-11-21T21:33:32.463Z,83.83789063
2022-11-21T21:34:33.240Z,83.94165039
2022-11-21T21:35:34.317Z,84.04541016
2022-11-21T21:36:35.607Z,84.14306641
2022-11-21T21:37:36.107Z,84.24682617
2022-11-21T21:38:37.232Z,84.4543457
2022-11-21T21:39:37.326Z,84.66186523
2022-11-21T21:40:38.085Z,84.96704102
2022-11-21T21:41:38.851Z,85.17456055
2022-11-21T21:42:39.360Z,85.38208008
2022-11-21T21:43:39.918Z,85.48583984
2022-11-21T21:44:40.595Z,85.58959961
2022-11-21T21:45:41.604Z,85.58959961
2022-11-21T21:46:42.351Z,85.58959961
2022-11-21T21:47:43.047Z,85.58959961
2022-11-21T21:48:43.803Z,85.48583984
2022-11-21T21:49:44.432Z,85.38208008
2022-11-21T21:50:45.217Z,85.27832031
2022-11-21T21:51:45.857Z,85.38208008
2022-11-21T21:52:46.659Z,85.48583984
2022-11-21T21:53:47.338Z,85.38208008
2022-11-21T21:54:47.786Z,85.13793945
2022-11-21T21:55:48.837Z,85.17456055
2022-11-21T21:57:19.662Z,85.17456055
2022-11-21T21:58:20.108Z,85.27832031
2022-11-21T21:59:20.658Z,85.38208008
2022-11-21T22:00:21.852Z,85.33935547
2022-11-21T22:01:22.677Z,85.24169922
2022-11-21T22:02:23.056Z,85.27832031
2022-11-21T22:03:24.364Z,85.27832031
2022-11-21T22:04:24.886Z,85.27832031
2022-11-21T22:05:26.099Z,85.38208008
2022-11-21T22:06:26.561Z,85.48583984
2022-11-21T22:07:27.959Z,85.58959961
2022-11-21T22:08:28.252Z,85.69335938
2022-11-21T22:09:28.955Z,85.89477539
2022-11-21T22:10:29.146Z,85.89477539
2022-11-21T22:11:29.627Z,85.69335938
2022-11-21T22:12:30.137Z,85.69335938
2022-11-21T22:13:30.586Z,85.58959961
2022-11-21T22:14:31.569Z,85.69335938
2022-11-21T22:15:32.102Z,85.89477539
2022-11-21T22:16:32.595Z,85.99853516
2022-11-21T22:17:33.033Z,86.41357422
2022-11-21T22:18:34.104Z,86.71875
2022-11-21T22:19:34.661Z,86.71875
2022-11-21T22:20:34.974Z,86.61499023
2022-11-21T22:21:35.451Z,86.61499023
2022-11-21T22:22:35.908Z,86.30981445
2022-11-21T22:23:46.689Z,85.99853516
2022-11-21T22:24:37.920Z,85.89477539
2022-11-21T22:25:39.098Z,85.69335938
2022-11-21T22:26:39.620Z,85.58959961
2022-11-21T22:27:40.086Z,85.69335938
2022-11-21T22:28:40.559Z,85.79101563
2022-11-21T22:29:41.052Z,85.79101563
2022-11-21T22:30:41.539Z,85.69335938
2022-11-21T22:31:41.999Z,85.58959961
2022-11-21T22:32:42.440Z,85.69335938
2022-11-21T22:33:42.904Z,85.89477539
2022-11-21T22:34:43.327Z,86.10229492
2022-11-21T22:35:44.619Z,86.10229492
2022-11-21T22:36:45.093Z,85.79101563
2022-11-21T22:37:46.307Z,85.79101563
2022-11-21T22:38:46.791Z,85.79101563
2022-11-21T22:39:47.271Z,85.79101563
2022-11-21T22:40:47.767Z,85.89477539
2022-11-21T22:41:48.218Z,86.10229492
2022-11-21T22:43:19.132Z,86.20605469
2022-11-21T22:44:19.567Z,85.99853516
2022-11-21T22:45:20.153Z,85.89477539
2022-11-21T22:46:20.500Z,85.99853516
2022-11-21T22:47:21.829Z,85.99853516
2022-11-21T22:48:22.543Z,86.20605469
2022-11-21T22:49:23.017Z,86.30981445
2022-11-21T22:50:23.484Z,86.41357422
2022-11-21T22:51:23.896Z,86.41357422
2022-11-21T22:52:24.430Z,86.30981445
2022-11-21T22:53:25.298Z,86.20605469
2022-11-21T22:54:25.796Z,86.20605469
2022-11-21T22:55:26.335Z,85.99853516
2022-11-21T22:56:27.406Z,85.89477539
2022-11-21T22:57:27.839Z,86.10229492
2022-11-21T22:58:28.324Z,86.20605469
2022-11-21T22:59:28.823Z,86.20605469
2022-11-21T23:00:29.421Z,85.99853516
2022-11-21T23:01:29.872Z,85.69335938
2022-11-21T23:02:30.261Z,85.58959961
2022-11-21T23:03:30.740Z,85.58959961
2022-11-21T23:04:31.566Z,85.58959961
2022-11-21T23:05:32.754Z,85.79101563
2022-11-21T23:06:33.169Z,86.10229492
2022-11-21T23:07:34.463Z,86.10229492
2022-11-21T23:08:34.855Z,86.30981445
2022-11-21T23:09:35.306Z,86.41357422
2022-11-21T23:10:35.884Z,86.30981445
2022-11-21T23:11:40.604Z,86.20605469
2022-11-21T23:12:36.744Z,86.20605469
2022-11-21T23:13:37.250Z,86.41357422
2022-11-21T23:14:37.691Z,86.51733398
2022-11-21T23:15:39.130Z,86.61499023
2022-11-21T23:16:39.540Z,86.82250977
2022-11-21T23:17:40.010Z,86.82250977
2022-11-21T23:18:40.520Z,86.82250977
2022-11-21T23:19:40.981Z,86.82250977
2022-11-21T23:20:41.468Z,86.82250977
2022-11-21T23:21:41.910Z,86.71875
2022-11-21T23:22:42.365Z,86.71875
2022-11-21T23:23:42.825Z,86.61499023
2022-11-21T23:24:43.272Z,86.61499023
2022-11-21T23:25:44.597Z,86.61499023
2022-11-21T23:26:45.055Z,86.71875
2022-11-21T23:27:45.567Z,86.61499023
2022-11-21T23:28:46.059Z,86.61499023
2022-11-21T23:29:46.510Z,86.61499023
2022-11-21T23:30:47.223Z,86.61499023
2022-11-21T23:31:47.615Z,86.61499023
2022-11-21T23:33:18.517Z,86.51733398
2022-11-21T23:34:18.990Z,86.41357422
2022-11-21T23:35:19.481Z,86.41357422
2022-11-21T23:36:20.843Z,86.41357422
2022-11-21T23:37:22.185Z,86.41357422
2022-11-21T23:38:22.797Z,86.41357422
2022-11-21T23:39:23.240Z,86.41357422
2022-11-21T23:40:23.692Z,86.30981445
2022-11-21T23:41:24.150Z,86.30981445
2022-11-21T23:42:24.626Z,86.20605469
2022-11-21T23:43:25.078Z,86.30981445
2022-11-21T23:44:25.507Z,86.30981445
2022-11-21T23:45:25.999Z,86.30981445
2022-11-21T23:46:26.486Z,86.51733398
2022-11-21T23:47:27.644Z,86.61499023
2022-11-21T23:48:27.996Z,86.61499023
2022-11-21T23:49:28.649Z,86.71875
2022-11-21T23:50:28.911Z,87.06665039
2022-11-21T23:51:29.389Z,87.27416992
2022-11-21T23:52:29.825Z,87.27416992
2022-11-21T23:53:30.319Z,87.27416992
2022-11-21T23:54:30.788Z,87.48168945
2022-11-21T23:55:31.256Z,87.58544922
2022-11-21T23:56:32.310Z,87.27416992
2022-11-21T23:57:32.888Z,87.17041016
2022-11-21T23:58:33.221Z,87.17041016
2022-11-21T23:59:33.633Z,87.37792969
